Time;durP1;ratioP1;P1;durP2;ratioP2;P2;SDS_P1;SDS_P2;PMS_P1;PMS_P2;Temp;Humidity;BMP_temperature;BMP_pressure;BME280_temperature;BME280_humidity;BME280_pressure;Samples;Min_cycle;Max_cycle;Signal;HPM_P1;HPM_P2
2023/03/06 00:00:40;;;;;;;;;;;;;;;6.01;72.94;100947.88;5047517;28;19924;-52
2023/03/06 00:03:05;;;;;;;;;;;;;;;6.01;73.39;100944.47;5047581;28;20385;-51
2023/03/06 00:05:30;;;;;;;;;;;;;;;6.03;73.40;100935.19;5047294;28;20003;-51
2023/03/06 00:07:56;;;;;;;;;;;;;;;6.01;72.89;100935.13;5046031;28;19975;-52
2023/03/06 00:10:22;;;;;;;;;;;;;;;5.98;73.20;100931.53;5047886;28;19925;-50
2023/03/06 00:12:49;;;;;;;;;;;;;;;5.97;73.44;100935.78;5051495;28;19917;-52
2023/03/06 00:15:14;;;;;;;;;;;;;;;5.97;73.23;100928.13;5047000;28;19999;-52
2023/03/06 00:17:40;;;;;;;;;;;;;;;5.95;73.64;100937.38;5047476;28;20040;-52
2023/03/06 00:20:06;;;;;;;;;;;;;;;5.91;73.33;100931.25;5050304;28;19967;-51
2023/03/06 00:22:31;;;;;;;;;;;;;;;5.91;73.30;100930.38;5055489;28;19917;-51
2023/03/06 00:24:56;;;;;;;;;;;;;;;5.88;73.20;100928.53;5046402;28;19925;-53
2023/03/06 00:27:24;;;;;;;;;;;;;;;5.87;73.48;100921.66;5046700;28;19924;-53
2023/03/06 00:29:53;;;;;;;;;;;;;;;5.88;73.59;100919.97;5052541;28;19970;-52
2023/03/06 00:32:19;;;;;;;;;;;;;;;5.89;73.63;100919.19;5056122;28;20377;-52
2023/03/06 00:34:47;;;;;;;;;;;;;;;5.87;73.32;100916.56;5049982;28;19916;-52
2023/03/06 00:37:12;;;;;;;;;;;;;;;5.86;73.69;100913.94;5051637;28;19947;-51
2023/03/06 00:39:37;;;;;;;;;;;;;;;5.86;73.71;100909.69;5052009;28;19921;-53
2023/03/06 00:42:03;;;;;;;;;;;;;;;5.86;73.74;100902.03;5053450;28;20027;-52
2023/03/06 00:44:28;;;;;;;;;;;;;;;5.84;73.74;100895.13;5050547;28;19917;-51
2023/03/06 00:46:53;;;;;;;;;;;;;;;5.84;73.83;100896.00;5049423;28;19973;-53
2023/03/06 00:49:18;;;;;;;;;;;;;;;5.85;73.34;100892.66;5049768;28;19951;-52
2023/03/06 00:51:44;;;;;;;;;;;;;;;5.84;73.23;100892.59;5049788;28;19920;-52
2023/03/06 00:54:09;;;;;;;;;;;;;;;5.82;73.46;100891.63;5050251;28;19920;-51
2023/03/06 00:56:34;;;;;;;;;;;;;;;5.79;73.36;100887.25;5047400;28;19921;-52
2023/03/06 00:58:59;;;;;;;;;;;;;;;5.78;73.14;100889.75;5050982;28;19917;-52
2023/03/06 01:01:25;;;;;;;;;;;;;;;5.75;73.55;100890.44;5031977;28;20222;-50
2023/03/06 01:03:50;;;;;;;;;;;;;;;5.71;73.46;100882.59;5050173;28;20384;-52
2023/03/06 01:06:16;;;;;;;;;;;;;;;5.68;73.49;100883.31;5046815;28;20346;-52
2023/03/06 01:08:41;;;;;;;;;;;;;;;5.67;73.78;100886.66;5049218;28;19928;-52
2023/03/06 01:11:06;;;;;;;;;;;;;;;5.68;73.60;100885.00;5048434;28;19921;-52
2023/03/06 01:13:32;;;;;;;;;;;;;;;5.64;73.54;100879.75;5048837;28;19924;-52
2023/03/06 01:16:11;;;;;;;;;;;;;;;5.60;73.30;100872.75;5049421;28;19924;-52
2023/03/06 01:18:36;;;;;;;;;;;;;;;5.56;73.35;100875.94;5047153;28;20369;-51
2023/03/06 01:21:02;;;;;;;;;;;;;;;5.56;73.30;100872.50;5049698;28;19917;-52
2023/03/06 01:23:27;;;;;;;;;;;;;;;5.56;73.25;100872.50;5050590;28;20047;-52
2023/03/06 01:25:53;;;;;;;;;;;;;;;5.53;73.38;100874.94;5049172;28;20389;-52
2023/03/06 01:28:18;;;;;;;;;;;;;;;5.51;73.22;100879.06;5046056;28;20011;-52
2023/03/06 01:30:43;;;;;;;;;;;;;;;5.47;73.58;100870.41;5050490;28;19921;-51
2023/03/06 01:33:08;;;;;;;;;;;;;;;5.43;73.48;100881.25;5049553;28;19928;-52
2023/03/06 01:35:34;;;;;;;;;;;;;;;5.41;73.50;100871.78;5049070;28;19921;-51
2023/03/06 01:37:59;;;;;;;;;;;;;;;5.38;73.51;100870.81;5042286;28;20012;-53
2023/03/06 01:40:24;;;;;;;;;;;;;;;5.38;73.44;100872.50;5049662;28;19956;-51
2023/03/06 01:42:50;;;;;;;;;;;;;;;5.35;73.48;100867.25;5051124;28;19928;-52
2023/03/06 01:45:15;;;;;;;;;;;;;;;5.33;73.39;100859.50;5044576;28;19920;-51
2023/03/06 01:47:40;;;;;;;;;;;;;;;5.32;73.27;100862.88;5047273;28;19982;-51
2023/03/06 01:50:07;;;;;;;;;;;;;;;5.30;73.67;100853.41;5048355;28;20344;-51
2023/03/06 01:52:38;;;;;;;;;;;;;;;5.26;73.48;100851.50;5048290;28;20392;-51
2023/03/06 01:55:10;;;;;;;;;;;;;;;5.22;73.74;100847.94;5050728;28;20372;-52
2023/03/06 01:57:39;;;;;;;;;;;;;;;5.21;73.43;100847.84;5047984;28;20373;-52
2023/03/06 02:00:08;;;;;;;;;;;;;;;5.20;73.51;100841.88;5050735;28;20381;-52
2023/03/06 02:02:34;;;;;;;;;;;;;;;5.19;73.74;100839.25;5048453;28;20476;-49
2023/03/06 02:05:01;;;;;;;;;;;;;;;5.17;73.34;100831.53;5048034;28;19921;-52
2023/03/06 02:07:27;;;;;;;;;;;;;;;5.14;73.60;100833.94;5045977;28;20070;-52
2023/03/06 02:09:52;;;;;;;;;;;;;;;5.10;73.38;100819.31;5046704;28;20336;-51
2023/03/06 02:12:18;;;;;;;;;;;;;;;5.05;73.36;100826.72;5048528;28;19921;-53
2023/03/06 02:14:44;;;;;;;;;;;;;;;5.02;73.44;100826.56;5048065;28;19953;-52
2023/03/06 02:17:10;;;;;;;;;;;;;;;5.02;73.47;100829.09;5047143;28;20320;-52
2023/03/06 02:19:54;;;;;;;;;;;;;;;5.01;73.36;100824.81;5046940;28;20442;-53
2023/03/06 02:22:20;;;;;;;;;;;;;;;4.98;73.42;100819.56;5041531;28;19960;-51
2023/03/06 02:24:54;;;;;;;;;;;;;;;4.95;73.69;100821.94;5048378;28;20436;-52
2023/03/06 02:27:19;;;;;;;;;;;;;;;4.97;73.79;100814.38;5042096;28;19944;-52
2023/03/06 02:29:45;;;;;;;;;;;;;;;4.96;73.67;100802.44;5045774;28;19979;-49
2023/03/06 02:32:10;;;;;;;;;;;;;;;4.95;73.80;100806.66;5047136;28;19921;-52
2023/03/06 02:34:38;;;;;;;;;;;;;;;4.93;73.61;100804.84;5048484;28;19956;-52
2023/03/06 02:37:05;;;;;;;;;;;;;;;4.92;73.21;100803.97;5046589;28;19931;-52
2023/03/06 02:39:32;;;;;;;;;;;;;;;4.91;72.86;100801.34;5044786;28;20377;-51
2023/03/06 02:41:58;;;;;;;;;;;;;;;4.91;73.43;100803.88;5050005;28;20285;-52
2023/03/06 02:44:25;;;;;;;;;;;;;;;4.86;73.41;100805.34;5048302;28;19921;-52
2023/03/06 02:46:50;;;;;;;;;;;;;;;4.82;73.89;100807.72;5048563;28;19921;-52
2023/03/06 02:49:15;;;;;;;;;;;;;;;4.81;73.78;100800.88;5042894;28;19948;-52
2023/03/06 02:51:41;;;;;;;;;;;;;;;4.80;73.91;100809.34;5047517;28;19970;-52
2023/03/06 02:54:06;;;;;;;;;;;;;;;4.78;73.72;100795.63;5048002;28;20003;-52
2023/03/06 02:56:31;;;;;;;;;;;;;;;4.77;73.70;100809.16;5048566;28;20298;-52
2023/03/06 02:58:56;;;;;;;;;;;;;;;4.74;73.86;100803.06;5045244;28;19929;-52
2023/03/06 03:01:22;;;;;;;;;;;;;;;4.71;73.66;100805.44;5047680;28;19925;-51
2023/03/06 03:03:47;;;;;;;;;;;;;;;4.71;73.88;100797.78;5048018;28;19995;-51
2023/03/06 03:06:12;;;;;;;;;;;;;;;4.68;73.83;100790.88;5048281;28;20369;-52
2023/03/06 03:08:37;;;;;;;;;;;;;;;4.66;74.09;100783.94;5047200;28;19932;-52
2023/03/06 03:11:03;;;;;;;;;;;;;;;4.66;73.96;100787.38;5045920;28;19932;-53
2023/03/06 03:13:29;;;;;;;;;;;;;;;4.63;74.21;100784.69;5049161;28;20499;-53
2023/03/06 03:16:01;;;;;;;;;;;;;;;4.61;74.00;100781.19;5047931;28;19925;-52
2023/03/06 03:18:27;;;;;;;;;;;;;;;4.60;74.30;100778.53;5043478;28;20381;-52
2023/03/06 03:20:52;;;;;;;;;;;;;;;4.60;74.14;100776.88;5046262;28;19916;-53
2023/03/06 03:23:18;;;;;;;;;;;;;;;4.60;74.02;100784.50;5046109;28;19928;-51
2023/03/06 03:25:43;;;;;;;;;;;;;;;4.58;73.91;100776.81;5047795;28;19948;-52
2023/03/06 03:28:08;;;;;;;;;;;;;;;4.55;73.97;100770.66;5047846;28;19935;-51
2023/03/06 03:30:34;;;;;;;;;;;;;;;4.54;74.25;100769.78;5045926;28;19959;-52
2023/03/06 03:32:59;;;;;;;;;;;;;;;4.51;74.00;100761.16;5045597;28;20377;-53
2023/03/06 03:35:24;;;;;;;;;;;;;;;4.50;74.23;100755.19;5042957;28;20271;-52
2023/03/06 03:37:51;;;;;;;;;;;;;;;4.47;74.06;100752.47;5047589;28;19921;-52
2023/03/06 03:40:16;;;;;;;;;;;;;;;4.44;74.08;100746.38;5045961;28;19917;-52
2023/03/06 03:42:41;;;;;;;;;;;;;;;4.41;74.11;100747.06;5051001;28;19920;-52
2023/03/06 03:45:07;;;;;;;;;;;;;;;4.39;74.06;100742.72;5052496;28;19943;-51
2023/03/06 03:47:32;;;;;;;;;;;;;;;4.36;74.25;100734.91;5048991;28;20305;-51
2023/03/06 03:49:57;;;;;;;;;;;;;;;4.35;74.32;100734.03;5049202;28;19920;-50
2023/03/06 03:52:23;;;;;;;;;;;;;;;4.33;74.33;100727.13;5050690;28;19932;-52
2023/03/06 03:54:48;;;;;;;;;;;;;;;4.29;74.64;100734.59;5052243;28;19920;-52
2023/03/06 03:57:13;;;;;;;;;;;;;;;4.27;74.69;100731.09;5046943;28;19932;-52
2023/03/06 03:59:38;;;;;;;;;;;;;;;4.26;74.57;100723.38;5049515;28;19921;-51
2023/03/06 04:02:04;;;;;;;;;;;;;;;4.26;74.48;100731.03;5050110;28;19927;-51
2023/03/06 04:04:29;;;;;;;;;;;;;;;4.28;74.49;100732.84;5053986;28;19921;-51
2023/03/06 04:06:54;;;;;;;;;;;;;;;4.29;74.63;100724.41;5049798;28;20409;-50
2023/03/06 04:09:19;;;;;;;;;;;;;;;4.30;74.27;100725.28;5050689;28;20296;-52
2023/03/06 04:11:45;;;;;;;;;;;;;;;4.30;75.01;100725.28;5051364;28;19917;-52
2023/03/06 04:14:10;;;;;;;;;;;;;;;4.30;74.86;100721.06;5049392;28;19924;-52
2023/03/06 04:16:35;;;;;;;;;;;;;;;4.28;75.25;100717.56;5049651;28;19925;-52
2023/03/06 04:19:00;;;;;;;;;;;;;;;4.28;75.09;100709.94;5051509;28;19928;-52
2023/03/06 04:21:27;;;;;;;;;;;;;;;4.27;74.95;100718.38;5050463;28;20004;-51
2023/03/06 04:23:53;;;;;;;;;;;;;;;4.27;74.92;100712.41;5050384;28;19917;-52
2023/03/06 04:26:18;;;;;;;;;;;;;;;4.28;75.11;100716.69;5038580;28;20289;-52
2023/03/06 04:28:43;;;;;;;;;;;;;;;4.26;75.30;100714.09;5040938;28;19964;-52
2023/03/06 04:31:10;;;;;;;;;;;;;;;4.25;75.88;100709.78;5040010;28;19971;-52
2023/03/06 04:33:35;;;;;;;;;;;;;;;4.22;75.84;100714.72;5050029;28;19934;-52
2023/03/06 04:36:01;;;;;;;;;;;;;;;4.22;75.28;100711.28;5048831;28;19925;-50
2023/03/06 04:38:26;;;;;;;;;;;;;;;4.19;75.69;100709.47;5049930;28;19921;-51
2023/03/06 04:40:51;;;;;;;;;;;;;;;4.21;76.10;100709.56;5049979;28;19999;-51
2023/03/06 04:43:16;;;;;;;;;;;;;;;4.23;75.83;100705.41;5055407;28;19920;-52
2023/03/06 04:45:42;;;;;;;;;;;;;;;4.23;76.09;100701.19;5048315;28;19920;-52
2023/03/06 04:48:07;;;;;;;;;;;;;;;4.25;76.35;100701.28;5053542;28;19925;-52
2023/03/06 04:50:32;;;;;;;;;;;;;;;4.26;76.39;100695.41;5049494;28;19967;-52
2023/03/06 04:53:00;;;;;;;;;;;;;;;4.26;76.17;100693.72;5049214;28;19921;-51
2023/03/06 04:55:25;;;;;;;;;;;;;;;4.27;76.01;100692.91;5045914;28;20035;-52
2023/03/06 04:57:50;;;;;;;;;;;;;;;4.26;76.37;100681.00;5048902;28;20473;-52
2023/03/06 05:00:20;;;;;;;;;;;;;;;4.27;76.50;100684.41;5047448;28;20258;-52
2023/03/06 05:02:45;;;;;;;;;;;;;;;4.28;76.23;100697.22;5051214;28;20408;-51
2023/03/06 05:05:11;;;;;;;;;;;;;;;4.26;76.30;100686.09;5048837;28;19964;-51
2023/03/06 05:07:37;;;;;;;;;;;;;;;4.28;76.58;100686.16;5049183;28;19916;-52
2023/03/06 05:10:02;;;;;;;;;;;;;;;4.29;76.27;100687.91;5049291;28;19924;-52
2023/03/06 05:12:28;;;;;;;;;;;;;;;4.29;76.80;100682.81;5049607;28;19920;-51
2023/03/06 05:14:53;;;;;;;;;;;;;;;4.29;76.69;100678.59;5048647;28;19916;-51
2023/03/06 05:17:18;;;;;;;;;;;;;;;4.29;76.80;100678.59;5048278;28;20028;-52
2023/03/06 05:19:43;;;;;;;;;;;;;;;4.28;76.68;100683.59;5048303;28;20337;-51
2023/03/06 05:22:09;;;;;;;;;;;;;;;4.27;76.49;100674.22;5049178;28;19920;-52
2023/03/06 05:24:34;;;;;;;;;;;;;;;4.26;76.84;100675.03;5049950;28;19917;-51
2023/03/06 05:26:59;;;;;;;;;;;;;;;4.27;77.01;100664.06;5047924;28;19925;-51
2023/03/06 05:29:24;;;;;;;;;;;;;;;4.28;77.02;100669.22;5050231;28;19925;-52
2023/03/06 05:31:50;;;;;;;;;;;;;;;4.28;76.41;100673.44;5048929;28;19921;-48
2023/03/06 05:34:15;;;;;;;;;;;;;;;4.27;77.35;100661.50;5049138;28;20354;-51
2023/03/06 05:36:41;;;;;;;;;;;;;;;4.23;77.15;100662.13;5047851;28;19983;-52
2023/03/06 05:39:06;;;;;;;;;;;;;;;4.21;77.39;100663.75;5047520;28;19924;-52
2023/03/06 05:41:32;;;;;;;;;;;;;;;4.20;77.15;100662.88;5049327;28;19943;-53
2023/03/06 05:43:57;;;;;;;;;;;;;;;4.24;77.40;100666.44;5043091;28;20300;-52
2023/03/06 05:46:23;;;;;;;;;;;;;;;4.22;77.70;100661.25;5049677;28;19917;-53
2023/03/06 05:48:49;;;;;;;;;;;;;;;4.21;77.83;100656.97;5048089;28;20368;-51
2023/03/06 05:51:14;;;;;;;;;;;;;;;4.20;77.46;100656.91;5047245;28;19959;-52
2023/03/06 05:53:39;;;;;;;;;;;;;;;4.20;77.79;100664.53;5030504;28;20011;-52
2023/03/06 05:56:07;;;;;;;;;;;;;;;4.18;77.85;100659.34;5049351;28;19924;-52
2023/03/06 05:58:33;;;;;;;;;;;;;;;4.20;78.00;100659.44;5047174;28;19944;-52
2023/03/06 06:00:58;;;;;;;;;;;;;;;4.20;78.04;100652.69;5046224;28;20373;-52
2023/03/06 06:03:24;;;;;;;;;;;;;;;4.22;77.99;100656.19;5046586;28;20015;-52
2023/03/06 06:05:50;;;;;;;;;;;;;;;4.24;78.27;100652.03;5049561;28;19913;-48
2023/03/06 06:08:15;;;;;;;;;;;;;;;4.24;78.10;100652.03;5045473;28;19933;-52
2023/03/06 06:10:41;;;;;;;;;;;;;;;4.25;78.28;100653.78;5048537;28;19920;-52
2023/03/06 06:13:06;;;;;;;;;;;;;;;4.26;78.68;100658.09;5047797;28;19951;-52
2023/03/06 06:15:31;;;;;;;;;;;;;;;4.26;77.88;100654.66;5051184;28;19928;-52
2023/03/06 06:17:57;;;;;;;;;;;;;;;4.24;77.93;100652.03;5048358;28;19921;-52
2023/03/06 06:20:22;;;;;;;;;;;;;;;4.26;78.03;100654.66;5045311;28;19917;-51
2023/03/06 06:22:48;;;;;;;;;;;;;;;4.26;78.61;100657.22;5051197;28;20405;-52
2023/03/06 06:25:13;;;;;;;;;;;;;;;4.25;78.49;100653.78;5047136;28;19921;-51
2023/03/06 06:27:38;;;;;;;;;;;;;;;4.25;78.52;100658.03;5048486;28;19924;-51
2023/03/06 06:30:04;;;;;;;;;;;;;;;4.25;78.66;100655.47;5046575;28;19928;-50
2023/03/06 06:32:30;;;;;;;;;;;;;;;4.26;78.67;100655.53;5046676;28;19924;-52
2023/03/06 06:34:55;;;;;;;;;;;;;;;4.27;79.09;100662.38;5047461;28;19921;-51
2023/03/06 06:37:20;;;;;;;;;;;;;;;4.28;78.54;100650.53;5048145;28;19952;-52
2023/03/06 06:39:46;;;;;;;;;;;;;;;4.29;78.67;100652.25;5046731;28;19927;-51
2023/03/06 06:42:11;;;;;;;;;;;;;;;4.33;78.68;100650.75;5048695;28;20227;-52
2023/03/06 06:44:37;;;;;;;;;;;;;;;4.31;78.81;100648.13;5046724;28;19921;-51
2023/03/06 06:47:02;;;;;;;;;;;;;;;4.33;78.83;100660.94;5049085;28;19913;-50
2023/03/06 06:49:27;;;;;;;;;;;;;;;4.34;78.99;100649.94;5046595;28;19925;-52
2023/03/06 06:51:53;;;;;;;;;;;;;;;4.33;78.86;100655.84;5047688;28;19924;-52
2023/03/06 06:54:19;;;;;;;;;;;;;;;4.33;79.21;100656.72;5045004;28;19926;-51
2023/03/06 06:56:44;;;;;;;;;;;;;;;4.30;79.22;100659.97;5046838;28;19928;-52
2023/03/06 06:59:09;;;;;;;;;;;;;;;4.32;79.29;100659.19;5047778;28;19919;-50
2023/03/06 07:01:34;;;;;;;;;;;;;;;4.30;79.66;100662.50;5045240;28;19964;-52
2023/03/06 07:04:00;;;;;;;;;;;;;;;4.30;79.76;100662.50;5044641;28;19968;-52
2023/03/06 07:06:25;;;;;;;;;;;;;;;4.32;79.66;100665.16;5049978;28;19920;-49
2023/03/06 07:08:50;;;;;;;;;;;;;;;4.34;79.98;100660.13;5049792;28;19936;-51
2023/03/06 07:11:17;;;;;;;;;;;;;;;4.36;79.95;100666.16;5043514;28;19989;-52
2023/03/06 07:13:43;;;;;;;;;;;;;;;4.38;80.08;100665.47;5053050;28;19916;-51
2023/03/06 07:16:08;;;;;;;;;;;;;;;4.35;79.84;100654.25;5041470;28;19928;-52
2023/03/06 07:18:33;;;;;;;;;;;;;;;4.42;80.15;100666.47;5052477;28;20030;-51
2023/03/06 07:20:59;;;;;;;;;;;;;;;4.42;80.14;100666.47;5050852;28;19921;-52
2023/03/06 07:23:25;;;;;;;;;;;;;;;4.42;80.19;100666.47;5058558;28;19992;-52
2023/03/06 07:25:50;;;;;;;;;;;;;;;4.46;80.24;100670.94;5047274;28;20595;-50
2023/03/06 07:28:16;;;;;;;;;;;;;;;4.47;80.36;100670.13;5050924;28;20258;-52
2023/03/06 07:30:41;;;;;;;;;;;;;;;4.47;80.20;100667.56;5051567;28;19973;-51
2023/03/06 07:33:07;;;;;;;;;;;;;;;4.48;80.36;100662.53;5052804;28;19925;-52
2023/03/06 07:35:32;;;;;;;;;;;;;;;4.49;80.17;100671.06;5051250;28;19928;-52
2023/03/06 07:37:58;;;;;;;;;;;;;;;4.51;79.89;100674.56;5033224;28;20370;-51
2023/03/06 07:40:23;;;;;;;;;;;;;;;4.52;80.14;100666.13;5050075;28;19938;-51
2023/03/06 07:42:49;;;;;;;;;;;;;;;4.55;80.20;100674.81;5050473;28;20378;-50
2023/03/06 07:45:14;;;;;;;;;;;;;;;4.56;80.35;100674.00;5052302;28;20369;-48
2023/03/06 07:47:39;;;;;;;;;;;;;;;4.57;80.66;100677.41;5048514;28;19967;-52
2023/03/06 07:50:06;;;;;;;;;;;;;;;4.61;80.34;100673.34;5046928;28;19920;-51
2023/03/06 07:52:31;;;;;;;;;;;;;;;4.62;80.77;100672.56;5042825;28;21921;-52
2023/03/06 07:54:57;;;;;;;;;;;;;;;4.65;80.61;100676.09;5049155;28;20469;-46
2023/03/06 07:57:22;;;;;;;;;;;;;;;4.68;81.18;100663.53;5052104;28;19920;-45
2023/03/06 07:59:47;;;;;;;;;;;;;;;4.69;81.22;100666.97;5048147;28;20007;-45
2023/03/06 08:02:12;;;;;;;;;;;;;;;4.71;81.11;100666.22;5049161;28;19933;-44
2023/03/06 08:04:38;;;;;;;;;;;;;;;4.72;81.71;100672.19;5051574;28;19917;-48
2023/03/06 08:07:03;;;;;;;;;;;;;;;4.72;81.83;100662.88;5051331;28;19951;-46
2023/03/06 08:09:29;;;;;;;;;;;;;;;4.74;81.90;100668.94;5051644;28;19924;-44
2023/03/06 08:11:54;;;;;;;;;;;;;;;4.76;81.75;100664.78;5047543;28;19938;-44
2023/03/06 08:14:20;;;;;;;;;;;;;;;4.79;81.84;100666.56;5046612;28;19917;-44
2023/03/06 08:16:45;;;;;;;;;;;;;;;4.83;82.09;100666.81;5050889;28;19925;-44
2023/03/06 08:19:10;;;;;;;;;;;;;;;4.86;82.50;100667.78;5047853;28;20381;-45
2023/03/06 08:21:35;;;;;;;;;;;;;;;4.86;82.32;100668.66;5046291;28;20447;-45
2023/03/06 08:24:01;;;;;;;;;;;;;;;4.91;82.21;100674.81;5047107;28;19951;-46
2023/03/06 08:26:27;;;;;;;;;;;;;;;4.94;82.32;100674.09;5041061;28;20350;-48
2023/03/06 08:28:54;;;;;;;;;;;;;;;4.97;82.61;100676.78;5048886;28;20293;-45
2023/03/06 08:31:23;;;;;;;;;;;;;;;4.97;82.94;100676.78;5050664;28;19963;-44
2023/03/06 08:33:48;;;;;;;;;;;;;;;4.98;82.42;100666.69;5050529;28;19948;-43
2023/03/06 08:36:14;;;;;;;;;;;;;;;4.98;83.42;100673.44;5049407;28;19967;-44
2023/03/06 08:38:39;;;;;;;;;;;;;;;5.00;82.72;100679.47;5051048;28;19917;-47
2023/03/06 08:41:04;;;;;;;;;;;;;;;5.05;82.56;100678.03;5051739;28;20303;-45
2023/03/06 08:43:29;;;;;;;;;;;;;;;5.10;82.59;100677.44;5050768;28;19943;-45
2023/03/06 08:45:56;;;;;;;;;;;;;;;5.14;82.58;100672.47;5049294;28;20070;-47
2023/03/06 08:48:21;;;;;;;;;;;;;;;5.26;82.51;100673.91;5046746;28;19932;-44
2023/03/06 08:50:46;;;;;;;;;;;;;;;5.45;82.41;100679.84;5049489;28;19917;-43
2023/03/06 08:53:12;;;;;;;;;;;;;;;5.61;81.86;100679.75;5047317;28;20491;-43
2023/03/06 08:55:37;;;;;;;;;;;;;;;5.72;81.89;100670.03;5044583;28;19931;-42
2023/03/06 08:58:03;;;;;;;;;;;;;;;5.83;81.43;100673.94;5028243;28;19921;-43
2023/03/06 09:00:32;;;;;;;;;;;;;;;5.88;81.07;100669.88;5044148;28;20267;-43
2023/03/06 09:02:57;;;;;;;;;;;;;;;5.93;80.96;100677.78;5046088;28;20011;-46
2023/03/06 09:05:23;;;;;;;;;;;;;;;5.94;80.28;100682.06;5044688;28;20063;-45
2023/03/06 09:07:48;;;;;;;;;;;;;;;5.97;80.37;100672.88;5028235;28;20373;-47
2023/03/06 09:10:14;;;;;;;;;;;;;;;5.99;80.48;100670.41;5044516;28;19921;-51
2023/03/06 09:12:40;;;;;;;;;;;;;;;6.02;80.52;100679.06;5046361;28;19925;-48
2023/03/06 09:15:05;;;;;;;;;;;;;;;6.03;80.17;100677.38;5044340;28;19917;-50
2023/03/06 09:17:30;;;;;;;;;;;;;;;6.04;80.29;100674.88;5045082;28;19935;-44
2023/03/06 09:19:56;;;;;;;;;;;;;;;6.05;79.94;100673.22;5043656;28;19929;-48
2023/03/06 09:22:21;;;;;;;;;;;;;;;6.04;79.59;100679.13;5044859;28;20297;-42
2023/03/06 09:24:46;;;;;;;;;;;;;;;6.02;79.28;100680.75;5042795;28;20294;-43
2023/03/06 09:27:11;;;;;;;;;;;;;;;6.00;79.07;100674.69;5045816;28;20019;-43
2023/03/06 09:29:37;;;;;;;;;;;;;;;6.00;78.69;100685.75;5023026;28;19976;-44
2023/03/06 09:32:02;;;;;;;;;;;;;;;6.00;78.69;100677.25;5025992;28;19917;-42
2023/03/06 09:34:28;;;;;;;;;;;;;;;5.99;78.59;100684.03;5023518;28;19968;-46
2023/03/06 09:36:53;;;;;;;;;;;;;;;5.98;78.86;100689.94;5024351;28;20422;-47
2023/03/06 09:39:18;;;;;;;;;;;;;;;5.97;78.52;100685.66;5023916;28;20453;-51
2023/03/06 09:41:49;;;;;;;;;;;;;;;5.98;77.98;100678.88;5024674;28;19941;-48
2023/03/06 09:44:17;;;;;;;;;;;;;;;6.00;78.22;100683.22;5021262;28;20390;-44
2023/03/06 09:46:45;;;;;;;;;;;;;;;5.99;78.05;100675.50;5025093;28;19928;-50
2023/03/06 09:49:24;;;;;;;;;;;;;;;6.00;77.97;100678.09;5023874;28;19936;-50
2023/03/06 09:52:08;;;;;;;;;;;;;;;6.02;78.20;100685.84;5025050;28;20018;-49
2023/03/06 09:54:38;;;;;;;;;;;;;;;6.04;78.42;100685.09;5021294;28;19928;-50
2023/03/06 09:57:12;;;;;;;;;;;;;;;6.07;78.44;100674.16;5026074;28;19921;-51
2023/03/06 09:59:42;;;;;;;;;;;;;;;6.07;77.86;100684.38;5019612;28;19917;-51
2023/03/06 10:02:16;;;;;;;;;;;;;;;6.09;78.04;100683.63;5022444;28;19924;-51
2023/03/06 10:04:43;;;;;;;;;;;;;;;6.11;78.24;100679.44;5023185;28;19940;-49
2023/03/06 10:07:13;;;;;;;;;;;;;;;6.15;78.37;100678.78;5018609;28;20056;-50
2023/03/06 10:09:59;;;;;;;;;;;;;;;6.19;78.35;100679.81;5026575;28;19921;-51
2023/03/06 10:12:27;;;;;;;;;;;;;;;6.21;78.41;100677.31;5030058;28;20298;-52
2023/03/06 10:15:18;;;;;;;;;;;;;;;6.22;78.00;100669.69;5020834;28;20444;-51
2023/03/06 10:17:43;;;;;;;;;;;;;;;6.25;77.79;100674.06;5024103;28;19917;-50
2023/03/06 10:20:15;;;;;;;;;;;;;;;6.27;78.18;100665.66;5022811;28;20050;-49
2023/03/06 10:22:49;;;;;;;;;;;;;;;6.31;78.36;100670.09;5024295;28;19923;-51
2023/03/06 10:25:47;;;;;;;;;;;;;;;6.33;78.21;100662.50;5023849;28;19956;-51
2023/03/06 10:28:21;;;;;;;;;;;;;;;6.37;78.72;100655.03;5011443;28;19972;-50
2023/03/06 10:30:56;;;;;;;;;;;;;;;6.40;78.90;100660.25;5032342;28;20143;-53
2023/03/06 10:33:21;;;;;;;;;;;;;;;6.45;78.22;100657.91;5036846;28;20470;-50
2023/03/06 10:35:52;;;;;;;;;;;;;;;6.50;78.37;100658.97;5042398;28;19917;-52
2023/03/06 10:38:17;;;;;;;;;;;;;;;6.58;78.51;100665.25;5039637;28;19960;-49
2023/03/06 10:40:55;;;;;;;;;;;;;;;6.66;78.35;100661.31;5040510;28;19916;-52
2023/03/06 10:43:21;;;;;;;;;;;;;;;6.75;78.55;100663.38;5040113;28;19925;-51
2023/03/06 10:45:48;;;;;;;;;;;;;;;6.82;78.39;100667.06;5042177;28;20037;-51
2023/03/06 10:48:16;;;;;;;;;;;;;;;6.88;78.08;100659.63;5041642;28;20397;-50
2023/03/06 10:50:42;;;;;;;;;;;;;;;6.92;77.59;100651.28;5040473;28;19928;-51
2023/03/06 10:53:17;;;;;;;;;;;;;;;6.97;77.41;100667.66;5038843;28;19920;-51
2023/03/06 10:55:49;;;;;;;;;;;;;;;6.98;77.05;100662.63;5024411;28;19924;-50
2023/03/06 10:58:22;;;;;;;;;;;;;;;6.97;76.55;100659.97;5040919;28;19923;-51
2023/03/06 11:00:59;;;;;;;;;;;;;;;6.96;76.46;100665.91;5040596;28;19916;-51
2023/03/06 11:03:24;;;;;;;;;;;;;;;6.97;75.98;100670.19;5042526;28;20487;-51
2023/03/06 11:05:54;;;;;;;;;;;;;;;6.96;75.54;100659.09;5042078;28;19930;-52
2023/03/06 11:08:21;;;;;;;;;;;;;;;6.98;75.40;100664.31;5041525;28;19927;-52
2023/03/06 11:10:53;;;;;;;;;;;;;;;7.01;75.57;100666.09;5041742;28;20433;-51
2023/03/06 11:13:23;;;;;;;;;;;;;;;7.04;74.78;100673.88;5036197;28;19925;-53
2023/03/06 11:15:58;;;;;;;;;;;;;;;7.09;74.36;100669.81;5041877;28;19916;-57
2023/03/06 11:18:33;;;;;;;;;;;;;;;7.12;74.48;100670.81;5042289;28;19939;-57
2023/03/06 11:20:59;;;;;;;;;;;;;;;7.12;74.10;100668.25;5039015;28;20023;-57
2023/03/06 11:23:27;;;;;;;;;;;;;;;7.09;72.96;100667.25;5037656;28;20015;-56
2023/03/06 11:25:56;;;;;;;;;;;;;;;7.02;73.03;100668.69;5036060;28;19917;-56
2023/03/06 11:28:30;;;;;;;;;;;;;;;6.97;73.54;100665.97;5040443;28;19924;-56
2023/03/06 11:31:07;;;;;;;;;;;;;;;7.02;73.95;100658.47;5036950;28;19936;-56
2023/03/06 11:33:37;;;;;;;;;;;;;;;7.23;73.38;100658.44;5035145;28;19955;-56
2023/03/06 11:36:02;;;;;;;;;;;;;;;7.46;72.83;100647.41;5038528;28;20288;-56
2023/03/06 11:38:34;;;;;;;;;;;;;;;7.66;72.38;100650.69;5040117;28;20007;-56
2023/03/06 11:41:01;;;;;;;;;;;;;;;7.72;72.22;100639.78;5035438;28;19916;-53
2023/03/06 11:43:48;;;;;;;;;;;;;;;7.67;71.12;100642.19;5040272;28;19924;-54
2023/03/06 11:46:23;;;;;;;;;;;;;;;7.59;71.68;100641.03;5039327;28;19992;-55
2023/03/06 11:48:51;;;;;;;;;;;;;;;7.57;71.57;100639.22;5041930;28;19925;-55
2023/03/06 11:51:20;;;;;;;;;;;;;;;7.52;71.74;100639.03;5040609;28;20018;-55
2023/03/06 11:53:45;;;;;;;;;;;;;;;7.45;71.00;100639.63;5038976;28;19925;-55
2023/03/06 11:56:30;;;;;;;;;;;;;;;7.44;72.16;100638.78;5040718;28;20278;-55
2023/03/06 11:58:55;;;;;;;;;;;;;;;7.63;72.76;100624.09;5039252;28;19977;-54
2023/03/06 12:01:27;;;;;;;;;;;;;;;7.83;72.21;100625.69;5040506;28;19921;-55
2023/03/06 12:04:11;;;;;;;;;;;;;;;8.02;70.94;100614.41;5042047;28;20000;-55
2023/03/06 12:06:46;;;;;;;;;;;;;;;8.16;69.66;100613.16;5043288;28;19921;-54
2023/03/06 12:09:11;;;;;;;;;;;;;;;8.19;67.98;100609.81;5042739;28;19920;-55
2023/03/06 12:11:42;;;;;;;;;;;;;;;8.16;68.54;100607.19;5042637;28;20281;-53
2023/03/06 12:14:30;;;;;;;;;;;;;;;8.21;66.50;100616.75;5041820;28;20007;-53
2023/03/06 12:17:04;;;;;;;;;;;;;;;8.13;67.19;100605.38;5033828;28;20435;-54
2023/03/06 12:19:42;;;;;;;;;;;;;;;7.97;67.17;100609.09;5043256;28;19948;-53
2023/03/06 12:22:08;;;;;;;;;;;;;;;7.88;68.19;100605.34;5043383;28;19917;-54
2023/03/06 12:24:45;;;;;;;;;;;;;;;7.86;68.33;100601.88;5046024;28;20010;-55
2023/03/06 12:27:19;;;;;;;;;;;;;;;7.85;68.14;100595.88;5044218;28;20401;-55
2023/03/06 12:30:04;;;;;;;;;;;;;;;7.90;67.41;100593.50;5044507;28;19932;-55
2023/03/06 12:32:38;;;;;;;;;;;;;;;7.94;67.56;100591.06;5046352;28;19931;-55
2023/03/06 12:35:03;;;;;;;;;;;;;;;8.00;66.92;100591.28;5045549;28;20004;-55
2023/03/06 12:37:51;;;;;;;;;;;;;;;8.02;66.11;100583.66;5047798;28;20027;-55
2023/03/06 12:40:19;;;;;;;;;;;;;;;7.99;65.61;100584.41;5048763;28;19917;-55
2023/03/06 12:42:44;;;;;;;;;;;;;;;7.92;66.06;100582.47;5042657;28;20380;-55
2023/03/06 12:45:20;;;;;;;;;;;;;;;7.86;66.23;100579.69;5031367;28;19916;-55
2023/03/06 12:47:46;;;;;;;;;;;;;;;7.85;66.56;100577.97;5054525;28;19975;-55